15°C Temp
15°C Dewpoint
% Humidity
Temperature
35 KM/H
22 MPH
19 KTS
200°
South South
West

Wind Speed
Misty
Conditions
Pressure 1006.92 (hPa) - 29.73 (in)
Visibility 3.7 (mi) - 6.0 (km)

Current Conditions
EGOV
Location 9(mi)
Metar :EGOV 172150Z AUTO 20019KT 6000 BR BKN005/// BKN013/// 15/15 Q1007
Wed 17th July 22:50 pm

Airport
  Metar Aviation API Data Provided by https://www.checkwx.com/ PHP scripts by weather34.com ©2019